SYCJ Airport Information

Runway Information
Runway 06 Length 7448 ft width 148 ft
Elevation 96 ft Threshold 0 ft Heading 45
Runway 24 Length 7448 ft Width 148 ft
Elevation 71 ft Threshold 0 ft Heading 225
Runway 11 Length 5002 ft width 148 ft
Elevation 74 ft Threshold 0 ft Heading 90
Runway 29 Length 5002 ft Width 148 ft
Elevation 81 ft Threshold 0 ft Heading 270
Airport Frequencies
Type APP Name TIMEHRI AP Frequency 119.4 MHZ
Type GND Name GND Frequency 121.7 MHZ
Type TWR Name TIMEHRI TW Frequency 118.3 MHZ
Airport Navaids
Type VOR-DME Name Timehri Frequency 113500 KHZ
Type NDB Name Timehri Frequency 356 KHZ
Type NDB Name Timehri Frequency 305 KHZ
Airport Weather Information & NOTAM
ADDS - METARS form results

(0801 UTC 22 May 2018)
 
METAR text: SYCJ 220730Z VRB02KT 9999 FEW013 SCT038 23/23 Q1012 NOSIG
Conditions at: SYCJ (GEORGETOWN/TIMEH, GY) observed 0730 UTC 22 May 2018
Temperature: 23.0°C (73°F)
Dewpoint: 23.0°C (73°F) [RH = 100%]
Pressure (altimeter): 29.88 inches Hg (1012.0 mb)
Winds: variable direction winds at 2 MPH (2 knots; 1.0 m/s)
Visibility: 6 or more miles (10+ km)
Ceiling: at least 12,000 feet AGL
Clouds: few clouds at 1300 feet AGL
scattered clouds at 3800 feet AGL
Weather: no significant weather observed at this time